Terminal Aerodrome Forecast
Issued by NWS

Home | Current Version | Previous Version | Text Only | Print | Product List | Glossary On
Versions: 1 2 3 4 5 6 7 8 9 10 11 12 13 14 15 16 17 18
000
FTUS43 KICT 012300
TAFRSL
TAF
KRSL 012328Z 0200/0224 06008KT P6SM FEW030 BKN060
     FM020600 02010KT P6SM VCTS SCT015 OVC030CB
     FM021000 35016G23KT 5SM BR VCSH OVC015
     FM021600 34019G26KT P6SM OVC035=

USA.gov is the U.S. government's official web portal to all federal, state and local government web resources and services.